sensor_id;sensor_type;location;lat;lon;timestamp;temperature;humidity
435;DHT22;204;48.942;9.256;2023-05-07T00:00:36;14.20;1.00
435;DHT22;204;48.942;9.256;2023-05-07T00:03:02;14.30;1.00
435;DHT22;204;48.942;9.256;2023-05-07T00:05:28;14.30;1.00
435;DHT22;204;48.942;9.256;2023-05-07T00:07:54;14.30;1.00
435;DHT22;204;48.942;9.256;2023-05-07T00:10:19;14.30;1.00
435;DHT22;204;48.942;9.256;2023-05-07T00:12:45;14.30;1.00
435;DHT22;204;48.942;9.256;2023-05-07T00:15:11;14.30;1.00
435;DHT22;204;48.942;9.256;2023-05-07T00:17:36;14.30;1.00
435;DHT22;204;48.942;9.256;2023-05-07T00:20:03;14.30;1.00
435;DHT22;204;48.942;9.256;2023-05-07T00:22:29;14.20;1.00
435;DHT22;204;48.942;9.256;2023-05-07T00:24:55;14.20;1.00
435;DHT22;204;48.942;9.256;2023-05-07T00:27:22;14.20;1.00
435;DHT22;204;48.942;9.256;2023-05-07T00:29:47;14.10;1.00
435;DHT22;204;48.942;9.256;2023-05-07T00:32:13;14.10;1.00
435;DHT22;204;48.942;9.256;2023-05-07T00:34:38;14.10;1.00
435;DHT22;204;48.942;9.256;2023-05-07T00:37:05;14.00;1.00
435;DHT22;204;48.942;9.256;2023-05-07T00:39:33;13.90;1.00
435;DHT22;204;48.942;9.256;2023-05-07T00:41:58;13.90;1.00
435;DHT22;204;48.942;9.256;2023-05-07T00:44:26;13.90;1.00
435;DHT22;204;48.942;9.256;2023-05-07T00:46:52;13.90;1.00
435;DHT22;204;48.942;9.256;2023-05-07T00:49:18;13.80;1.00
435;DHT22;204;48.942;9.256;2023-05-07T00:51:45;13.80;1.00
435;DHT22;204;48.942;9.256;2023-05-07T00:54:11;13.70;1.00
435;DHT22;204;48.942;9.256;2023-05-07T00:56:37;13.70;1.00
435;DHT22;204;48.942;9.256;2023-05-07T00:59:04;13.60;1.00
435;DHT22;204;48.942;9.256;2023-05-07T01:01:31;13.60;1.00
435;DHT22;204;48.942;9.256;2023-05-07T01:03:57;13.50;1.00
435;DHT22;204;48.942;9.256;2023-05-07T01:06:23;13.50;1.00
435;DHT22;204;48.942;9.256;2023-05-07T01:08:51;13.50;1.00
435;DHT22;204;48.942;9.256;2023-05-07T01:11:18;13.40;1.00
435;DHT22;204;48.942;9.256;2023-05-07T01:13:46;13.40;1.00
435;DHT22;204;48.942;9.256;2023-05-07T01:16:12;13.40;1.00
435;DHT22;204;48.942;9.256;2023-05-07T01:18:38;13.40;1.00
435;DHT22;204;48.942;9.256;2023-05-07T01:21:05;13.30;1.00
435;DHT22;204;48.942;9.256;2023-05-07T01:23:30;13.30;1.00
435;DHT22;204;48.942;9.256;2023-05-07T01:25:56;13.30;1.00
435;DHT22;204;48.942;9.256;2023-05-07T01:28:22;13.20;1.00
435;DHT22;204;48.942;9.256;2023-05-07T01:30:52;13.20;1.00
435;DHT22;204;48.942;9.256;2023-05-07T01:33:21;13.20;1.00
435;DHT22;204;48.942;9.256;2023-05-07T01:35:50;13.20;1.00
435;DHT22;204;48.942;9.256;2023-05-07T01:38:17;13.10;1.00
435;DHT22;204;48.942;9.256;2023-05-07T01:40:43;13.10;1.00
435;DHT22;204;48.942;9.256;2023-05-07T01:43:09;13.10;1.00
435;DHT22;204;48.942;9.256;2023-05-07T01:45:35;13.10;1.00
435;DHT22;204;48.942;9.256;2023-05-07T01:48:02;13.10;1.00
435;DHT22;204;48.942;9.256;2023-05-07T01:50:29;13.10;1.00
435;DHT22;204;48.942;9.256;2023-05-07T01:52:55;13.10;1.00
435;DHT22;204;48.942;9.256;2023-05-07T01:55:21;13.10;1.00
435;DHT22;204;48.942;9.256;2023-05-07T01:57:47;13.10;1.00
435;DHT22;204;48.942;9.256;2023-05-07T02:00:12;13.10;1.00
435;DHT22;204;48.942;9.256;2023-05-07T02:02:38;13.10;1.00
435;DHT22;204;48.942;9.256;2023-05-07T02:05:04;13.10;1.00
435;DHT22;204;48.942;9.256;2023-05-07T02:07:30;13.20;1.00
435;DHT22;204;48.942;9.256;2023-05-07T02:09:55;13.20;1.00
435;DHT22;204;48.942;9.256;2023-05-07T02:12:22;13.20;1.00
435;DHT22;204;48.942;9.256;2023-05-07T02:14:48;13.20;1.00
435;DHT22;204;48.942;9.256;2023-05-07T02:17:13;13.20;1.00
435;DHT22;204;48.942;9.256;2023-05-07T02:19:39;13.20;1.00
435;DHT22;204;48.942;9.256;2023-05-07T02:22:04;13.20;1.00
435;DHT22;204;48.942;9.256;2023-05-07T02:24:30;13.20;1.00
435;DHT22;204;48.942;9.256;2023-05-07T02:26:56;13.20;1.00
435;DHT22;204;48.942;9.256;2023-05-07T02:29:21;13.20;1.00
435;DHT22;204;48.942;9.256;2023-05-07T02:31:47;13.20;1.00
435;DHT22;204;48.942;9.256;2023-05-07T02:34:16;13.20;1.00
435;DHT22;204;48.942;9.256;2023-05-07T02:36:42;13.20;1.00
435;DHT22;204;48.942;9.256;2023-05-07T02:39:07;13.20;1.00
435;DHT22;204;48.942;9.256;2023-05-07T02:41:33;13.20;1.00
435;DHT22;204;48.942;9.256;2023-05-07T02:43:59;13.10;1.00
435;DHT22;204;48.942;9.256;2023-05-07T02:46:24;13.20;1.00
435;DHT22;204;48.942;9.256;2023-05-07T02:48:50;13.20;1.00
435;DHT22;204;48.942;9.256;2023-05-07T02:51:20;13.10;1.00
435;DHT22;204;48.942;9.256;2023-05-07T02:53:45;13.10;1.00
435;DHT22;204;48.942;9.256;2023-05-07T02:56:11;13.10;1.00
435;DHT22;204;48.942;9.256;2023-05-07T02:58:37;13.00;1.00
435;DHT22;204;48.942;9.256;2023-05-07T03:01:05;12.90;1.00
435;DHT22;204;48.942;9.256;2023-05-07T03:03:30;12.90;1.00
435;DHT22;204;48.942;9.256;2023-05-07T03:05:56;12.90;1.00
435;DHT22;204;48.942;9.256;2023-05-07T03:08:22;12.80;1.00
435;DHT22;204;48.942;9.256;2023-05-07T03:10:48;12.80;1.00
435;DHT22;204;48.942;9.256;2023-05-07T03:13:13;12.70;1.00
435;DHT22;204;48.942;9.256;2023-05-07T03:15:39;12.70;1.00
435;DHT22;204;48.942;9.256;2023-05-07T03:18:05;12.70;1.00
435;DHT22;204;48.942;9.256;2023-05-07T03:20:30;12.70;1.00
435;DHT22;204;48.942;9.256;2023-05-07T03:22:56;12.60;1.00
435;DHT22;204;48.942;9.256;2023-05-07T03:25:21;12.60;1.00
435;DHT22;204;48.942;9.256;2023-05-07T03:27:47;12.60;1.00
435;DHT22;204;48.942;9.256;2023-05-07T03:30:14;12.50;1.00
435;DHT22;204;48.942;9.256;2023-05-07T03:32:39;12.50;1.00
435;DHT22;204;48.942;9.256;2023-05-07T03:35:05;12.50;1.00
435;DHT22;204;48.942;9.256;2023-05-07T03:37:31;12.50;1.00
435;DHT22;204;48.942;9.256;2023-05-07T03:39:57;12.40;1.00
435;DHT22;204;48.942;9.256;2023-05-07T03:42:24;12.30;1.00
435;DHT22;204;48.942;9.256;2023-05-07T03:44:49;12.30;1.00
435;DHT22;204;48.942;9.256;2023-05-07T03:47:15;12.30;1.00
435;DHT22;204;48.942;9.256;2023-05-07T03:49:41;12.30;1.00
435;DHT22;204;48.942;9.256;2023-05-07T03:52:06;12.30;1.00
435;DHT22;204;48.942;9.256;2023-05-07T03:54:32;12.30;1.00
435;DHT22;204;48.942;9.256;2023-05-07T03:56:58;12.30;1.00
435;DHT22;204;48.942;9.256;2023-05-07T03:59:23;12.30;1.00
435;DHT22;204;48.942;9.256;2023-05-07T04:01:49;12.30;1.00
435;DHT22;204;48.942;9.256;2023-05-07T04:04:15;12.30;1.00
435;DHT22;204;48.942;9.256;2023-05-07T04:06:41;12.20;1.00
435;DHT22;204;48.942;9.256;2023-05-07T04:09:06;12.20;1.00
435;DHT22;204;48.942;9.256;2023-05-07T04:11:32;12.20;1.00
435;DHT22;204;48.942;9.256;2023-05-07T04:13:58;12.20;1.00
435;DHT22;204;48.942;9.256;2023-05-07T04:16:23;12.20;1.00
435;DHT22;204;48.942;9.256;2023-05-07T04:18:49;12.30;1.00
435;DHT22;204;48.942;9.256;2023-05-07T04:21:19;12.30;1.00
435;DHT22;204;48.942;9.256;2023-05-07T04:23:46;12.30;1.00
435;DHT22;204;48.942;9.256;2023-05-07T04:26:12;12.40;1.00
435;DHT22;204;48.942;9.256;2023-05-07T04:28:38;12.40;1.00
435;DHT22;204;48.942;9.256;2023-05-07T04:31:04;12.50;1.00
435;DHT22;204;48.942;9.256;2023-05-07T04:33:31;12.50;1.00
435;DHT22;204;48.942;9.256;2023-05-07T04:35:56;12.60;1.00
435;DHT22;204;48.942;9.256;2023-05-07T04:38:22;12.70;1.00
435;DHT22;204;48.942;9.256;2023-05-07T04:40:49;12.80;1.00
435;DHT22;204;48.942;9.256;2023-05-07T04:43:14;12.90;1.00
435;DHT22;204;48.942;9.256;2023-05-07T04:45:41;13.00;1.00
435;DHT22;204;48.942;9.256;2023-05-07T04:48:08;13.10;1.00
435;DHT22;204;48.942;9.256;2023-05-07T04:50:34;13.20;1.00
435;DHT22;204;48.942;9.256;2023-05-07T04:52:59;13.40;1.00
435;DHT22;204;48.942;9.256;2023-05-07T04:55:25;13.50;1.00
435;DHT22;204;48.942;9.256;2023-05-07T04:57:52;13.70;1.00
435;DHT22;204;48.942;9.256;2023-05-07T05:00:18;13.80;1.00
435;DHT22;204;48.942;9.256;2023-05-07T05:02:45;14.00;1.00
435;DHT22;204;48.942;9.256;2023-05-07T05:05:10;14.30;1.00
435;DHT22;204;48.942;9.256;2023-05-07T05:07:36;14.60;1.00
435;DHT22;204;48.942;9.256;2023-05-07T05:10:04;14.80;1.00
435;DHT22;204;48.942;9.256;2023-05-07T05:12:31;15.10;1.00
435;DHT22;204;48.942;9.256;2023-05-07T05:14:56;15.20;1.00
435;DHT22;204;48.942;9.256;2023-05-07T05:17:22;15.30;1.00
435;DHT22;204;48.942;9.256;2023-05-07T05:19:47;15.40;1.00
435;DHT22;204;48.942;9.256;2023-05-07T05:22:13;15.40;1.00
435;DHT22;204;48.942;9.256;2023-05-07T05:24:38;15.50;1.00
435;DHT22;204;48.942;9.256;2023-05-07T05:27:05;15.50;1.00
435;DHT22;204;48.942;9.256;2023-05-07T05:29:31;15.50;1.00
435;DHT22;204;48.942;9.256;2023-05-07T05:31:57;15.60;1.00
435;DHT22;204;48.942;9.256;2023-05-07T05:34:22;15.60;1.00
435;DHT22;204;48.942;9.256;2023-05-07T05:36:48;15.70;1.00
435;DHT22;204;48.942;9.256;2023-05-07T05:39:14;15.90;1.00
435;DHT22;204;48.942;9.256;2023-05-07T05:41:40;16.00;1.00
435;DHT22;204;48.942;9.256;2023-05-07T05:44:06;16.30;1.00
435;DHT22;204;48.942;9.256;2023-05-07T05:46:31;16.50;1.00
435;DHT22;204;48.942;9.256;2023-05-07T05:48:57;16.80;1.00
435;DHT22;204;48.942;9.256;2023-05-07T05:51:23;17.00;1.00
435;DHT22;204;48.942;9.256;2023-05-07T05:53:48;17.30;1.00
435;DHT22;204;48.942;9.256;2023-05-07T05:56:15;17.50;1.00
435;DHT22;204;48.942;9.256;2023-05-07T05:58:40;17.80;1.00
435;DHT22;204;48.942;9.256;2023-05-07T06:01:06;18.00;1.00
435;DHT22;204;48.942;9.256;2023-05-07T06:03:32;18.20;1.00
435;DHT22;204;48.942;9.256;2023-05-07T06:05:57;18.40;1.00
435;DHT22;204;48.942;9.256;2023-05-07T06:08:23;18.50;1.00
435;DHT22;204;48.942;9.256;2023-05-07T06:10:49;18.60;1.00
435;DHT22;204;48.942;9.256;2023-05-07T06:13:15;18.70;1.00
435;DHT22;204;48.942;9.256;2023-05-07T06:15:40;18.80;1.00
435;DHT22;204;48.942;9.256;2023-05-07T06:18:06;18.80;1.00
435;DHT22;204;48.942;9.256;2023-05-07T06:20:31;18.90;1.00
435;DHT22;204;48.942;9.256;2023-05-07T06:22:57;19.00;1.00
435;DHT22;204;48.942;9.256;2023-05-07T06:25:23;19.10;1.00
435;DHT22;204;48.942;9.256;2023-05-07T06:27:48;19.30;1.00
435;DHT22;204;48.942;9.256;2023-05-07T06:30:14;19.40;1.00
435;DHT22;204;48.942;9.256;2023-05-07T06:32:40;19.60;1.00
435;DHT22;204;48.942;9.256;2023-05-07T06:35:06;19.90;1.00
435;DHT22;204;48.942;9.256;2023-05-07T06:37:32;20.10;1.00
435;DHT22;204;48.942;9.256;2023-05-07T06:39:57;20.30;1.00
435;DHT22;204;48.942;9.256;2023-05-07T06:42:23;20.50;1.00
435;DHT22;204;48.942;9.256;2023-05-07T06:44:48;20.70;1.00
435;DHT22;204;48.942;9.256;2023-05-07T06:47:14;20.90;1.00
435;DHT22;204;48.942;9.256;2023-05-07T06:49:40;21.20;1.00
435;DHT22;204;48.942;9.256;2023-05-07T06:52:05;21.20;1.00
435;DHT22;204;48.942;9.256;2023-05-07T06:54:31;21.30;1.00
435;DHT22;204;48.942;9.256;2023-05-07T06:56:56;21.30;1.00
435;DHT22;204;48.942;9.256;2023-05-07T06:59:23;21.50;1.00
435;DHT22;204;48.942;9.256;2023-05-07T07:01:48;21.60;1.00
435;DHT22;204;48.942;9.256;2023-05-07T07:04:14;21.80;1.00
435;DHT22;204;48.942;9.256;2023-05-07T07:06:40;22.00;1.00
435;DHT22;204;48.942;9.256;2023-05-07T07:09:05;21.90;1.00
435;DHT22;204;48.942;9.256;2023-05-07T07:11:31;21.90;1.00
435;DHT22;204;48.942;9.256;2023-05-07T07:13:56;21.90;1.00
435;DHT22;204;48.942;9.256;2023-05-07T07:16:22;22.00;1.00
435;DHT22;204;48.942;9.256;2023-05-07T07:18:47;22.00;1.00
435;DHT22;204;48.942;9.256;2023-05-07T07:21:13;22.20;1.00
435;DHT22;204;48.942;9.256;2023-05-07T07:23:39;22.20;1.00
435;DHT22;204;48.942;9.256;2023-05-07T07:26:04;22.20;1.00
435;DHT22;204;48.942;9.256;2023-05-07T07:28:31;22.30;1.00
435;DHT22;204;48.942;9.256;2023-05-07T07:30:56;22.20;1.00
435;DHT22;204;48.942;9.256;2023-05-07T07:33:22;22.20;1.00
435;DHT22;204;48.942;9.256;2023-05-07T07:35:48;22.10;1.00
435;DHT22;204;48.942;9.256;2023-05-07T07:38:13;22.00;1.00
435;DHT22;204;48.942;9.256;2023-05-07T07:40:39;21.90;1.00
435;DHT22;204;48.942;9.256;2023-05-07T07:43:05;21.70;1.00
435;DHT22;204;48.942;9.256;2023-05-07T07:45:31;21.80;1.00
435;DHT22;204;48.942;9.256;2023-05-07T07:47:56;21.90;1.00
435;DHT22;204;48.942;9.256;2023-05-07T07:50:22;22.10;1.00
435;DHT22;204;48.942;9.256;2023-05-07T07:52:48;22.30;1.00
435;DHT22;204;48.942;9.256;2023-05-07T07:55:14;22.40;1.00
435;DHT22;204;48.942;9.256;2023-05-07T07:57:43;22.40;1.00
435;DHT22;204;48.942;9.256;2023-05-07T08:00:09;22.50;1.00
435;DHT22;204;48.942;9.256;2023-05-07T08:02:34;22.50;1.00
435;DHT22;204;48.942;9.256;2023-05-07T08:05:00;22.50;1.00
435;DHT22;204;48.942;9.256;2023-05-07T08:07:26;22.50;1.00
435;DHT22;204;48.942;9.256;2023-05-07T08:09:51;22.50;1.00
435;DHT22;204;48.942;9.256;2023-05-07T08:12:17;22.40;1.00
435;DHT22;204;48.942;9.256;2023-05-07T08:14:43;22.30;1.00
435;DHT22;204;48.942;9.256;2023-05-07T08:17:09;22.30;1.00
435;DHT22;204;48.942;9.256;2023-05-07T08:19:35;22.30;1.00
435;DHT22;204;48.942;9.256;2023-05-07T08:22:02;22.40;1.00
435;DHT22;204;48.942;9.256;2023-05-07T08:24:28;22.50;1.00
435;DHT22;204;48.942;9.256;2023-05-07T08:26:53;22.60;1.00
435;DHT22;204;48.942;9.256;2023-05-07T08:29:19;22.60;1.00
435;DHT22;204;48.942;9.256;2023-05-07T08:31:45;22.60;1.00
435;DHT22;204;48.942;9.256;2023-05-07T08:34:10;22.60;1.00
435;DHT22;204;48.942;9.256;2023-05-07T08:36:36;22.70;1.00
435;DHT22;204;48.942;9.256;2023-05-07T08:39:02;22.90;1.00
435;DHT22;204;48.942;9.256;2023-05-07T08:41:27;22.90;1.00
435;DHT22;204;48.942;9.256;2023-05-07T08:43:56;23.00;1.00
435;DHT22;204;48.942;9.256;2023-05-07T08:46:23;23.10;1.00
435;DHT22;204;48.942;9.256;2023-05-07T08:48:51;23.10;1.00
435;DHT22;204;48.942;9.256;2023-05-07T08:51:19;23.10;1.00
435;DHT22;204;48.942;9.256;2023-05-07T08:53:46;23.20;1.00
435;DHT22;204;48.942;9.256;2023-05-07T08:56:14;23.20;1.00
435;DHT22;204;48.942;9.256;2023-05-07T08:58:40;23.30;1.00
435;DHT22;204;48.942;9.256;2023-05-07T09:01:11;23.30;1.00
435;DHT22;204;48.942;9.256;2023-05-07T09:03:39;23.40;1.00
435;DHT22;204;48.942;9.256;2023-05-07T09:06:04;23.40;1.00
435;DHT22;204;48.942;9.256;2023-05-07T09:08:32;23.60;1.00
435;DHT22;204;48.942;9.256;2023-05-07T09:10:58;23.80;99.90
435;DHT22;204;48.942;9.256;2023-05-07T09:13:24;24.00;99.90
435;DHT22;204;48.942;9.256;2023-05-07T09:15:50;24.30;99.90
435;DHT22;204;48.942;9.256;2023-05-07T09:18:16;24.60;99.90
435;DHT22;204;48.942;9.256;2023-05-07T09:20:41;24.90;99.90
435;DHT22;204;48.942;9.256;2023-05-07T09:23:07;25.10;99.90
435;DHT22;204;48.942;9.256;2023-05-07T09:25:34;25.40;99.90
435;DHT22;204;48.942;9.256;2023-05-07T09:28:01;25.60;99.90
435;DHT22;204;48.942;9.256;2023-05-07T09:30:31;25.70;99.90
435;DHT22;204;48.942;9.256;2023-05-07T09:32:58;25.80;99.90
435;DHT22;204;48.942;9.256;2023-05-07T09:35:25;26.00;99.90
435;DHT22;204;48.942;9.256;2023-05-07T09:37:56;26.10;99.90
435;DHT22;204;48.942;9.256;2023-05-07T09:40:24;26.10;99.90
435;DHT22;204;48.942;9.256;2023-05-07T09:42:50;25.90;99.90
435;DHT22;204;48.942;9.256;2023-05-07T09:45:25;25.70;99.90
435;DHT22;204;48.942;9.256;2023-05-07T09:47:57;25.60;99.90
435;DHT22;204;48.942;9.256;2023-05-07T09:50:27;25.50;99.90
435;DHT22;204;48.942;9.256;2023-05-07T09:52:55;25.50;99.90
435;DHT22;204;48.942;9.256;2023-05-07T09:55:21;25.60;99.90
435;DHT22;204;48.942;9.256;2023-05-07T09:57:50;25.60;99.90
435;DHT22;204;48.942;9.256;2023-05-07T10:00:17;25.70;99.90
435;DHT22;204;48.942;9.256;2023-05-07T10:02:46;25.80;99.90
435;DHT22;204;48.942;9.256;2023-05-07T10:05:14;25.90;99.90
435;DHT22;204;48.942;9.256;2023-05-07T10:07:40;26.10;99.90
435;DHT22;204;48.942;9.256;2023-05-07T10:10:07;26.30;99.90
435;DHT22;204;48.942;9.256;2023-05-07T10:12:32;26.30;99.90
435;DHT22;204;48.942;9.256;2023-05-07T10:15:05;26.30;99.90
435;DHT22;204;48.942;9.256;2023-05-07T10:17:32;26.20;99.90
435;DHT22;204;48.942;9.256;2023-05-07T10:19:58;26.00;99.90
435;DHT22;204;48.942;9.256;2023-05-07T10:22:25;25.90;99.90
435;DHT22;204;48.942;9.256;2023-05-07T10:24:53;25.90;99.90
435;DHT22;204;48.942;9.256;2023-05-07T10:27:22;25.90;99.90
435;DHT22;204;48.942;9.256;2023-05-07T10:29:58;25.90;99.90
435;DHT22;204;48.942;9.256;2023-05-07T10:32:49;25.90;99.90
435;DHT22;204;48.942;9.256;2023-05-07T10:35:20;26.00;99.90
435;DHT22;204;48.942;9.256;2023-05-07T10:37:47;26.10;99.90
435;DHT22;204;48.942;9.256;2023-05-07T10:40:13;26.10;99.90
435;DHT22;204;48.942;9.256;2023-05-07T10:42:39;26.20;99.90
435;DHT22;204;48.942;9.256;2023-05-07T10:45:18;26.30;99.90
435;DHT22;204;48.942;9.256;2023-05-07T10:48:09;26.40;99.90
435;DHT22;204;48.942;9.256;2023-05-07T10:50:36;26.50;99.90
435;DHT22;204;48.942;9.256;2023-05-07T10:53:20;26.70;99.90
435;DHT22;204;48.942;9.256;2023-05-07T10:55:51;26.60;99.90
435;DHT22;204;48.942;9.256;2023-05-07T10:58:24;26.60;99.90
435;DHT22;204;48.942;9.256;2023-05-07T11:00:59;26.60;99.90
435;DHT22;204;48.942;9.256;2023-05-07T11:03:26;26.50;99.90
435;DHT22;204;48.942;9.256;2023-05-07T11:08:55;26.50;99.90
435;DHT22;204;48.942;9.256;2023-05-07T11:11:44;26.60;99.90
435;DHT22;204;48.942;9.256;2023-05-07T11:14:10;26.70;99.90
435;DHT22;204;48.942;9.256;2023-05-07T11:16:36;26.80;99.90
435;DHT22;204;48.942;9.256;2023-05-07T11:19:03;26.80;99.90
435;DHT22;204;48.942;9.256;2023-05-07T11:21:36;26.90;99.90
435;DHT22;204;48.942;9.256;2023-05-07T11:24:03;26.80;99.90
435;DHT22;204;48.942;9.256;2023-05-07T11:26:40;26.80;99.90
435;DHT22;204;48.942;9.256;2023-05-07T11:29:11;26.80;99.90
435;DHT22;204;48.942;9.256;2023-05-07T11:31:37;26.70;99.90
435;DHT22;204;48.942;9.256;2023-05-07T11:34:04;26.70;99.90
435;DHT22;204;48.942;9.256;2023-05-07T11:36:32;26.70;99.90
435;DHT22;204;48.942;9.256;2023-05-07T11:38:57;26.70;99.90
435;DHT22;204;48.942;9.256;2023-05-07T11:41:33;26.70;99.90
435;DHT22;204;48.942;9.256;2023-05-07T11:44:00;26.80;99.90
435;DHT22;204;48.942;9.256;2023-05-07T11:46:27;27.00;99.90
435;DHT22;204;48.942;9.256;2023-05-07T11:48:53;27.10;99.90
435;DHT22;204;48.942;9.256;2023-05-07T11:51:20;27.10;99.90
435;DHT22;204;48.942;9.256;2023-05-07T11:53:46;27.20;99.90
435;DHT22;204;48.942;9.256;2023-05-07T11:56:13;27.10;99.90
435;DHT22;204;48.942;9.256;2023-05-07T11:58:40;27.10;99.90
435;DHT22;204;48.942;9.256;2023-05-07T12:01:08;27.00;99.90
435;DHT22;204;48.942;9.256;2023-05-07T12:03:39;26.80;99.90
435;DHT22;204;48.942;9.256;2023-05-07T12:06:08;26.90;99.90
435;DHT22;204;48.942;9.256;2023-05-07T12:08:36;27.00;99.90
435;DHT22;204;48.942;9.256;2023-05-07T12:11:03;27.20;99.90
435;DHT22;204;48.942;9.256;2023-05-07T12:13:28;27.40;99.90
435;DHT22;204;48.942;9.256;2023-05-07T12:15:55;27.60;99.90
435;DHT22;204;48.942;9.256;2023-05-07T12:18:22;27.80;99.90
435;DHT22;204;48.942;9.256;2023-05-07T12:20:48;28.10;99.90
435;DHT22;204;48.942;9.256;2023-05-07T12:23:14;28.40;99.90
435;DHT22;204;48.942;9.256;2023-05-07T12:25:42;28.50;99.90
435;DHT22;204;48.942;9.256;2023-05-07T12:28:17;28.60;99.90
435;DHT22;204;48.942;9.256;2023-05-07T12:30:45;28.50;99.90
435;DHT22;204;48.942;9.256;2023-05-07T12:33:11;28.50;99.90
435;DHT22;204;48.942;9.256;2023-05-07T12:35:39;28.50;99.90
435;DHT22;204;48.942;9.256;2023-05-07T12:38:09;28.50;99.90
435;DHT22;204;48.942;9.256;2023-05-07T12:40:37;28.40;99.90
435;DHT22;204;48.942;9.256;2023-05-07T12:43:03;28.50;99.90
435;DHT22;204;48.942;9.256;2023-05-07T12:45:28;28.50;99.90
435;DHT22;204;48.942;9.256;2023-05-07T12:47:54;28.50;99.90
435;DHT22;204;48.942;9.256;2023-05-07T12:50:20;28.50;99.90
435;DHT22;204;48.942;9.256;2023-05-07T12:52:47;28.60;99.90
435;DHT22;204;48.942;9.256;2023-05-07T12:55:17;28.80;99.90
435;DHT22;204;48.942;9.256;2023-05-07T12:57:45;28.90;99.90
435;DHT22;204;48.942;9.256;2023-05-07T13:00:11;28.90;99.90
435;DHT22;204;48.942;9.256;2023-05-07T13:02:39;29.00;99.90
435;DHT22;204;48.942;9.256;2023-05-07T13:05:05;29.10;99.90
435;DHT22;204;48.942;9.256;2023-05-07T13:07:30;29.20;99.90
435;DHT22;204;48.942;9.256;2023-05-07T13:09:56;29.30;99.90
435;DHT22;204;48.942;9.256;2023-05-07T13:12:21;29.30;99.90
435;DHT22;204;48.942;9.256;2023-05-07T13:14:47;29.40;99.90
435;DHT22;204;48.942;9.256;2023-05-07T13:17:12;29.40;99.90
435;DHT22;204;48.942;9.256;2023-05-07T13:19:38;29.30;99.90
435;DHT22;204;48.942;9.256;2023-05-07T13:22:04;29.20;99.90
435;DHT22;204;48.942;9.256;2023-05-07T13:24:29;29.20;99.90
435;DHT22;204;48.942;9.256;2023-05-07T13:26:55;29.00;99.90
435;DHT22;204;48.942;9.256;2023-05-07T13:29:21;28.70;99.90
435;DHT22;204;48.942;9.256;2023-05-07T13:31:54;28.40;99.90
435;DHT22;204;48.942;9.256;2023-05-07T13:34:19;28.10;99.90
435;DHT22;204;48.942;9.256;2023-05-07T13:36:45;27.80;99.90
435;DHT22;204;48.942;9.256;2023-05-07T13:39:14;27.40;99.90
435;DHT22;204;48.942;9.256;2023-05-07T13:41:39;27.10;99.90
435;DHT22;204;48.942;9.256;2023-05-07T13:44:08;26.70;99.90
435;DHT22;204;48.942;9.256;2023-05-07T13:46:33;26.30;99.90
435;DHT22;204;48.942;9.256;2023-05-07T13:48:59;25.90;99.90
435;DHT22;204;48.942;9.256;2023-05-07T13:51:24;25.50;99.90
435;DHT22;204;48.942;9.256;2023-05-07T13:53:51;25.10;99.90
435;DHT22;204;48.942;9.256;2023-05-07T13:56:17;24.80;99.90
435;DHT22;204;48.942;9.256;2023-05-07T13:58:43;24.50;99.90
435;DHT22;204;48.942;9.256;2023-05-07T14:01:08;24.20;99.90
435;DHT22;204;48.942;9.256;2023-05-07T14:03:34;23.90;99.90
435;DHT22;204;48.942;9.256;2023-05-07T14:06:03;23.60;99.90
435;DHT22;204;48.942;9.256;2023-05-07T14:08:28;23.30;99.90
435;DHT22;204;48.942;9.256;2023-05-07T14:10:54;23.10;99.90
435;DHT22;204;48.942;9.256;2023-05-07T14:13:20;22.80;99.90
435;DHT22;204;48.942;9.256;2023-05-07T14:15:45;22.60;99.90
435;DHT22;204;48.942;9.256;2023-05-07T14:18:12;22.50;99.90
435;DHT22;204;48.942;9.256;2023-05-07T14:20:38;22.30;99.90
435;DHT22;204;48.942;9.256;2023-05-07T14:23:04;22.00;99.90
435;DHT22;204;48.942;9.256;2023-05-07T14:25:29;21.70;99.90
435;DHT22;204;48.942;9.256;2023-05-07T14:27:55;21.50;99.90
435;DHT22;204;48.942;9.256;2023-05-07T14:30:23;21.30;99.90
435;DHT22;204;48.942;9.256;2023-05-07T14:32:50;21.10;1.00
435;DHT22;204;48.942;9.256;2023-05-07T14:35:16;21.00;1.00
435;DHT22;204;48.942;9.256;2023-05-07T14:37:42;20.90;1.00
435;DHT22;204;48.942;9.256;2023-05-07T14:40:08;20.70;1.00
435;DHT22;204;48.942;9.256;2023-05-07T14:42:34;20.50;1.00
435;DHT22;204;48.942;9.256;2023-05-07T14:44:59;20.30;1.00
435;DHT22;204;48.942;9.256;2023-05-07T14:47:25;20.20;1.00
435;DHT22;204;48.942;9.256;2023-05-07T14:49:50;20.10;1.00
435;DHT22;204;48.942;9.256;2023-05-07T14:52:16;20.10;1.00
435;DHT22;204;48.942;9.256;2023-05-07T14:54:42;20.20;1.00
435;DHT22;204;48.942;9.256;2023-05-07T14:57:08;20.20;1.00
435;DHT22;204;48.942;9.256;2023-05-07T14:59:35;20.20;1.00
435;DHT22;204;48.942;9.256;2023-05-07T15:02:01;20.30;1.00
435;DHT22;204;48.942;9.256;2023-05-07T15:04:27;20.30;1.00
435;DHT22;204;48.942;9.256;2023-05-07T15:06:52;20.40;1.00
435;DHT22;204;48.942;9.256;2023-05-07T15:09:21;20.40;1.00
435;DHT22;204;48.942;9.256;2023-05-07T15:11:47;20.30;1.00
435;DHT22;204;48.942;9.256;2023-05-07T15:14:12;20.30;1.00
435;DHT22;204;48.942;9.256;2023-05-07T15:16:38;20.30;1.00
435;DHT22;204;48.942;9.256;2023-05-07T15:19:03;20.30;1.00
435;DHT22;204;48.942;9.256;2023-05-07T15:21:29;20.40;1.00
435;DHT22;204;48.942;9.256;2023-05-07T15:23:58;20.50;1.00
435;DHT22;204;48.942;9.256;2023-05-07T15:26:23;20.70;1.00
435;DHT22;204;48.942;9.256;2023-05-07T15:28:49;20.80;1.00
435;DHT22;204;48.942;9.256;2023-05-07T15:31:15;21.00;1.00
435;DHT22;204;48.942;9.256;2023-05-07T15:33:41;21.10;1.00
435;DHT22;204;48.942;9.256;2023-05-07T15:36:07;21.20;1.00
435;DHT22;204;48.942;9.256;2023-05-07T15:38:34;21.30;1.00
435;DHT22;204;48.942;9.256;2023-05-07T15:40:59;21.30;1.00
435;DHT22;204;48.942;9.256;2023-05-07T15:43:25;21.30;1.00
435;DHT22;204;48.942;9.256;2023-05-07T15:45:51;21.30;1.00
435;DHT22;204;48.942;9.256;2023-05-07T15:48:16;21.20;1.00
435;DHT22;204;48.942;9.256;2023-05-07T15:50:42;21.20;1.00
435;DHT22;204;48.942;9.256;2023-05-07T15:53:08;21.10;1.00
435;DHT22;204;48.942;9.256;2023-05-07T15:55:34;21.10;1.00
435;DHT22;204;48.942;9.256;2023-05-07T15:58:00;21.00;1.00
435;DHT22;204;48.942;9.256;2023-05-07T16:00:26;20.90;1.00
435;DHT22;204;48.942;9.256;2023-05-07T16:02:53;20.80;1.00
435;DHT22;204;48.942;9.256;2023-05-07T16:05:18;20.60;1.00
435;DHT22;204;48.942;9.256;2023-05-07T16:07:44;20.50;1.00
435;DHT22;204;48.942;9.256;2023-05-07T16:10:10;20.40;1.00
435;DHT22;204;48.942;9.256;2023-05-07T16:12:36;20.20;1.00
435;DHT22;204;48.942;9.256;2023-05-07T16:15:02;20.00;1.00
435;DHT22;204;48.942;9.256;2023-05-07T16:17:27;19.70;1.00
435;DHT22;204;48.942;9.256;2023-05-07T16:19:53;19.50;1.00
435;DHT22;204;48.942;9.256;2023-05-07T16:22:19;19.30;1.00
435;DHT22;204;48.942;9.256;2023-05-07T16:24:44;19.10;1.00
435;DHT22;204;48.942;9.256;2023-05-07T16:27:10;19.00;1.00
435;DHT22;204;48.942;9.256;2023-05-07T16:29:36;18.80;1.00
435;DHT22;204;48.942;9.256;2023-05-07T16:32:01;18.70;1.00
435;DHT22;204;48.942;9.256;2023-05-07T16:34:27;18.60;1.00
435;DHT22;204;48.942;9.256;2023-05-07T16:36:53;18.60;1.00
435;DHT22;204;48.942;9.256;2023-05-07T16:39:18;18.50;1.00
435;DHT22;204;48.942;9.256;2023-05-07T16:41:44;18.50;1.00
435;DHT22;204;48.942;9.256;2023-05-07T16:44:13;18.40;1.00